sensor_id;sensor_type;location;lat;lon;timestamp;temperature;humidity
47754;DHT22;2038;51.728;6.674;2023-01-29T01:30:20;-0.60;99.90
47754;DHT22;2038;51.728;6.674;2023-01-29T12:10:47;2.70;99.90
47754;DHT22;2038;51.728;6.674;2023-01-29T21:40:23;3.60;99.90
47754;DHT22;2038;51.728;6.674;2023-01-29T21:42:49;3.70;99.90
47754;DHT22;2038;51.728;6.674;2023-01-29T21:45:34;3.60;99.90
47754;DHT22;2038;51.728;6.674;2023-01-29T21:48:00;3.70;99.90
47754;DHT22;2038;51.728;6.674;2023-01-29T21:50:26;3.70;99.90
47754;DHT22;2038;51.728;6.674;2023-01-29T21:52:52;3.70;99.90
47754;DHT22;2038;51.728;6.674;2023-01-29T21:55:18;3.80;99.90
47754;DHT22;2038;51.728;6.674;2023-01-29T21:57:44;3.80;99.90
47754;DHT22;2038;51.728;6.674;2023-01-29T22:00:12;3.70;99.90
47754;DHT22;2038;51.728;6.674;2023-01-29T22:02:38;3.90;99.90
47754;DHT22;2038;51.728;6.674;2023-01-29T22:05:06;3.80;99.90
47754;DHT22;2038;51.728;6.674;2023-01-29T22:07:33;3.90;99.90
47754;DHT22;2038;51.728;6.674;2023-01-29T22:09:59;3.90;99.90
47754;DHT22;2038;51.728;6.674;2023-01-29T22:12:25;3.90;99.90
47754;DHT22;2038;51.728;6.674;2023-01-29T22:14:51;3.80;99.90
47754;DHT22;2038;51.728;6.674;2023-01-29T22:17:17;3.90;99.90
47754;DHT22;2038;51.728;6.674;2023-01-29T22:19:46;3.90;99.90
47754;DHT22;2038;51.728;6.674;2023-01-29T22:22:13;3.90;99.90
47754;DHT22;2038;51.728;6.674;2023-01-29T22:24:42;3.80;99.90
47754;DHT22;2038;51.728;6.674;2023-01-29T22:27:11;3.90;99.90
47754;DHT22;2038;51.728;6.674;2023-01-29T22:29:38;3.90;99.90
47754;DHT22;2038;51.728;6.674;2023-01-29T22:32:05;4.00;99.90
47754;DHT22;2038;51.728;6.674;2023-01-29T22:34:32;3.90;99.90
47754;DHT22;2038;51.728;6.674;2023-01-29T22:36:59;4.00;99.90
47754;DHT22;2038;51.728;6.674;2023-01-29T22:46:47;4.10;99.90
47754;DHT22;2038;51.728;6.674;2023-01-29T22:51:40;4.20;99.90
47754;DHT22;2038;51.728;6.674;2023-01-29T22:56:32;4.40;99.90
47754;DHT22;2038;51.728;6.674;2023-01-29T22:58:59;4.10;99.90
47754;DHT22;2038;51.728;6.674;2023-01-29T23:01:27;4.10;99.90
47754;DHT22;2038;51.728;6.674;2023-01-29T23:03:56;4.10;99.90
47754;DHT22;2038;51.728;6.674;2023-01-29T23:06:22;4.10;99.90
47754;DHT22;2038;51.728;6.674;2023-01-29T23:08:49;4.10;99.90
47754;DHT22;2038;51.728;6.674;2023-01-29T23:11:18;4.10;99.90
47754;DHT22;2038;51.728;6.674;2023-01-29T23:13:54;4.10;99.90
47754;DHT22;2038;51.728;6.674;2023-01-29T23:16:22;4.10;99.90
47754;DHT22;2038;51.728;6.674;2023-01-29T23:18:52;3.90;99.90
47754;DHT22;2038;51.728;6.674;2023-01-29T23:21:21;4.20;99.90
47754;DHT22;2038;51.728;6.674;2023-01-29T23:23:50;4.20;99.90
47754;DHT22;2038;51.728;6.674;2023-01-29T23:26:17;4.20;99.90
47754;DHT22;2038;51.728;6.674;2023-01-29T23:29:01;4.20;99.90
47754;DHT22;2038;51.728;6.674;2023-01-29T23:31:28;4.20;99.90
47754;DHT22;2038;51.728;6.674;2023-01-29T23:33:54;4.20;99.90
47754;DHT22;2038;51.728;6.674;2023-01-29T23:36:20;4.20;99.90
47754;DHT22;2038;51.728;6.674;2023-01-29T23:38:46;4.30;99.90
47754;DHT22;2038;51.728;6.674;2023-01-29T23:41:12;4.20;99.90
47754;DHT22;2038;51.728;6.674;2023-01-29T23:43:38;4.10;99.90
47754;DHT22;2038;51.728;6.674;2023-01-29T23:48:31;4.40;99.90
47754;DHT22;2038;51.728;6.674;2023-01-29T23:50:57;4.50;99.90
47754;DHT22;2038;51.728;6.674;2023-01-29T23:56:00;4.30;99.90
47754;DHT22;2038;51.728;6.674;2023-01-29T23:58:29;4.30;99.90
